sensor_id;sensor_type;location;lat;lon;timestamp;pressure;altitude;pressure_sealevel;temperature
19666;BMP180;9980;51.020;7.772;2023-08-08T00:02:21;97469.00;;;16.80
19666;BMP180;9980;51.020;7.772;2023-08-08T00:04:49;97471.00;;;16.80
19666;BMP180;9980;51.020;7.772;2023-08-08T00:07:17;97466.00;;;16.80
19666;BMP180;9980;51.020;7.772;2023-08-08T00:09:44;97482.00;;;16.80
19666;BMP180;9980;51.020;7.772;2023-08-08T00:12:11;97475.00;;;16.80
19666;BMP180;9980;51.020;7.772;2023-08-08T00:14:38;97460.00;;;16.80
19666;BMP180;9980;51.020;7.772;2023-08-08T00:17:05;97478.00;;;16.80
19666;BMP180;9980;51.020;7.772;2023-08-08T00:19:32;97457.00;;;16.70
19666;BMP180;9980;51.020;7.772;2023-08-08T00:21:59;97466.00;;;16.70
19666;BMP180;9980;51.020;7.772;2023-08-08T00:24:26;97453.00;;;16.70
19666;BMP180;9980;51.020;7.772;2023-08-08T00:26:53;97458.00;;;16.70
19666;BMP180;9980;51.020;7.772;2023-08-08T00:29:21;97453.00;;;16.70
19666;BMP180;9980;51.020;7.772;2023-08-08T00:31:51;97440.00;;;16.70
19666;BMP180;9980;51.020;7.772;2023-08-08T00:34:18;97456.00;;;16.70
19666;BMP180;9980;51.020;7.772;2023-08-08T00:36:45;97453.00;;;16.60
19666;BMP180;9980;51.020;7.772;2023-08-08T00:39:12;97470.00;;;16.60
19666;BMP180;9980;51.020;7.772;2023-08-08T00:41:39;97457.00;;;16.60
19666;BMP180;9980;51.020;7.772;2023-08-08T00:44:06;97448.00;;;16.60
19666;BMP180;9980;51.020;7.772;2023-08-08T00:46:33;97445.00;;;16.60
19666;BMP180;9980;51.020;7.772;2023-08-08T00:49:00;97452.00;;;16.60
19666;BMP180;9980;51.020;7.772;2023-08-08T00:51:30;97421.00;;;16.50
19666;BMP180;9980;51.020;7.772;2023-08-08T00:54:04;97439.00;;;16.50
19666;BMP180;9980;51.020;7.772;2023-08-08T00:56:32;97439.00;;;16.50
19666;BMP180;9980;51.020;7.772;2023-08-08T00:58:59;97439.00;;;16.50
19666;BMP180;9980;51.020;7.772;2023-08-08T01:01:26;97426.00;;;16.40
19666;BMP180;9980;51.020;7.772;2023-08-08T01:03:53;97430.00;;;16.40
19666;BMP180;9980;51.020;7.772;2023-08-08T01:09:04;97436.00;;;16.30
19666;BMP180;9980;51.020;7.772;2023-08-08T01:11:37;97444.00;;;16.30
19666;BMP180;9980;51.020;7.772;2023-08-08T01:14:07;97421.00;;;16.30
19666;BMP180;9980;51.020;7.772;2023-08-08T01:16:36;97439.00;;;16.30
19666;BMP180;9980;51.020;7.772;2023-08-08T01:19:04;97426.00;;;16.30
19666;BMP180;9980;51.020;7.772;2023-08-08T01:21:37;97428.00;;;16.30
19666;BMP180;9980;51.020;7.772;2023-08-08T01:24:20;97427.00;;;16.20
19666;BMP180;9980;51.020;7.772;2023-08-08T01:26:49;97431.00;;;16.30
19666;BMP180;9980;51.020;7.772;2023-08-08T01:29:16;97433.00;;;16.30
19666;BMP180;9980;51.020;7.772;2023-08-08T01:31:43;97434.00;;;16.20
19666;BMP180;9980;51.020;7.772;2023-08-08T01:34:11;97429.00;;;16.20
19666;BMP180;9980;51.020;7.772;2023-08-08T01:36:59;97432.00;;;16.20
19666;BMP180;9980;51.020;7.772;2023-08-08T01:39:33;97442.00;;;16.20
19666;BMP180;9980;51.020;7.772;2023-08-08T01:42:01;97437.00;;;16.20
19666;BMP180;9980;51.020;7.772;2023-08-08T01:44:29;97430.00;;;16.20
19666;BMP180;9980;51.020;7.772;2023-08-08T01:46:57;97434.00;;;16.20
19666;BMP180;9980;51.020;7.772;2023-08-08T01:49:24;97435.00;;;16.10
19666;BMP180;9980;51.020;7.772;2023-08-08T01:51:52;97433.00;;;16.10
19666;BMP180;9980;51.020;7.772;2023-08-08T01:54:19;97426.00;;;16.10
19666;BMP180;9980;51.020;7.772;2023-08-08T01:56:46;97424.00;;;16.10
19666;BMP180;9980;51.020;7.772;2023-08-08T01:59:13;97425.00;;;16.10
19666;BMP180;9980;51.020;7.772;2023-08-08T02:01:42;97425.00;;;16.10
19666;BMP180;9980;51.020;7.772;2023-08-08T02:04:10;97425.00;;;16.00
19666;BMP180;9980;51.020;7.772;2023-08-08T02:06:37;97413.00;;;16.00
19666;BMP180;9980;51.020;7.772;2023-08-08T02:09:04;97409.00;;;16.00
19666;BMP180;9980;51.020;7.772;2023-08-08T02:11:31;97411.00;;;16.00
19666;BMP180;9980;51.020;7.772;2023-08-08T02:13:58;97423.00;;;16.00
19666;BMP180;9980;51.020;7.772;2023-08-08T02:16:25;97401.00;;;15.90
19666;BMP180;9980;51.020;7.772;2023-08-08T02:18:52;97409.00;;;15.90
19666;BMP180;9980;51.020;7.772;2023-08-08T02:21:19;97400.00;;;15.90
19666;BMP180;9980;51.020;7.772;2023-08-08T02:23:48;97411.00;;;15.80
19666;BMP180;9980;51.020;7.772;2023-08-08T02:26:15;97414.00;;;15.80
19666;BMP180;9980;51.020;7.772;2023-08-08T02:28:42;97413.00;;;15.80
19666;BMP180;9980;51.020;7.772;2023-08-08T02:31:10;97417.00;;;15.80
19666;BMP180;9980;51.020;7.772;2023-08-08T02:33:37;97411.00;;;15.70
19666;BMP180;9980;51.020;7.772;2023-08-08T02:36:04;97408.00;;;15.70
19666;BMP180;9980;51.020;7.772;2023-08-08T02:38:31;97428.00;;;15.70
19666;BMP180;9980;51.020;7.772;2023-08-08T02:40:58;97400.00;;;15.70
19666;BMP180;9980;51.020;7.772;2023-08-08T02:43:25;97411.00;;;15.60
19666;BMP180;9980;51.020;7.772;2023-08-08T02:45:52;97403.00;;;15.60
19666;BMP180;9980;51.020;7.772;2023-08-08T02:48:19;97393.00;;;15.60
19666;BMP180;9980;51.020;7.772;2023-08-08T02:50:46;97392.00;;;15.60
19666;BMP180;9980;51.020;7.772;2023-08-08T02:53:13;97394.00;;;15.50
19666;BMP180;9980;51.020;7.772;2023-08-08T02:55:44;97397.00;;;15.50
19666;BMP180;9980;51.020;7.772;2023-08-08T02:58:11;97387.00;;;15.50
19666;BMP180;9980;51.020;7.772;2023-08-08T03:00:38;97381.00;;;15.50
19666;BMP180;9980;51.020;7.772;2023-08-08T03:03:09;97375.00;;;15.40
19666;BMP180;9980;51.020;7.772;2023-08-08T03:05:36;97378.00;;;15.40
19666;BMP180;9980;51.020;7.772;2023-08-08T03:08:05;97381.00;;;15.40
19666;BMP180;9980;51.020;7.772;2023-08-08T03:10:32;97378.00;;;15.40
19666;BMP180;9980;51.020;7.772;2023-08-08T03:12:59;97387.00;;;15.40
19666;BMP180;9980;51.020;7.772;2023-08-08T03:15:27;97391.00;;;15.40
19666;BMP180;9980;51.020;7.772;2023-08-08T03:17:54;97368.00;;;15.30
19666;BMP180;9980;51.020;7.772;2023-08-08T03:20:22;97374.00;;;15.30
19666;BMP180;9980;51.020;7.772;2023-08-08T03:22:50;97363.00;;;15.30
19666;BMP180;9980;51.020;7.772;2023-08-08T03:25:17;97370.00;;;15.30
19666;BMP180;9980;51.020;7.772;2023-08-08T03:27:44;97365.00;;;15.30
19666;BMP180;9980;51.020;7.772;2023-08-08T03:30:13;97375.00;;;15.30
19666;BMP180;9980;51.020;7.772;2023-08-08T03:32:42;97371.00;;;15.30
19666;BMP180;9980;51.020;7.772;2023-08-08T03:35:09;97352.00;;;15.20
19666;BMP180;9980;51.020;7.772;2023-08-08T03:37:38;97371.00;;;15.20
19666;BMP180;9980;51.020;7.772;2023-08-08T03:40:07;97358.00;;;15.20
19666;BMP180;9980;51.020;7.772;2023-08-08T03:42:34;97359.00;;;15.20
19666;BMP180;9980;51.020;7.772;2023-08-08T03:45:02;97361.00;;;15.20
19666;BMP180;9980;51.020;7.772;2023-08-08T03:47:29;97364.00;;;15.20
19666;BMP180;9980;51.020;7.772;2023-08-08T03:49:56;97353.00;;;15.10
19666;BMP180;9980;51.020;7.772;2023-08-08T03:52:24;97367.00;;;15.10
19666;BMP180;9980;51.020;7.772;2023-08-08T03:54:52;97359.00;;;15.10
19666;BMP180;9980;51.020;7.772;2023-08-08T03:57:21;97372.00;;;15.10
19666;BMP180;9980;51.020;7.772;2023-08-08T03:59:48;97358.00;;;15.10
19666;BMP180;9980;51.020;7.772;2023-08-08T04:02:18;97357.00;;;15.00
19666;BMP180;9980;51.020;7.772;2023-08-08T04:04:45;97364.00;;;14.90
19666;BMP180;9980;51.020;7.772;2023-08-08T04:07:12;97345.00;;;15.00
19666;BMP180;9980;51.020;7.772;2023-08-08T04:09:39;97350.00;;;15.00
19666;BMP180;9980;51.020;7.772;2023-08-08T04:12:06;97362.00;;;15.00
19666;BMP180;9980;51.020;7.772;2023-08-08T04:14:33;97372.00;;;15.00
19666;BMP180;9980;51.020;7.772;2023-08-08T04:17:00;97364.00;;;15.00
19666;BMP180;9980;51.020;7.772;2023-08-08T04:19:27;97353.00;;;15.00
19666;BMP180;9980;51.020;7.772;2023-08-08T04:21:54;97345.00;;;15.00
19666;BMP180;9980;51.020;7.772;2023-08-08T04:24:21;97364.00;;;15.00
19666;BMP180;9980;51.020;7.772;2023-08-08T04:26:48;97347.00;;;15.00
19666;BMP180;9980;51.020;7.772;2023-08-08T04:29:15;97349.00;;;15.00
19666;BMP180;9980;51.020;7.772;2023-08-08T04:31:42;97352.00;;;15.00
19666;BMP180;9980;51.020;7.772;2023-08-08T04:34:09;97368.00;;;15.00
19666;BMP180;9980;51.020;7.772;2023-08-08T04:36:36;97358.00;;;15.00
19666;BMP180;9980;51.020;7.772;2023-08-08T04:39:03;97366.00;;;15.10
19666;BMP180;9980;51.020;7.772;2023-08-08T04:41:30;97350.00;;;15.10
19666;BMP180;9980;51.020;7.772;2023-08-08T04:43:57;97359.00;;;15.10
19666;BMP180;9980;51.020;7.772;2023-08-08T04:46:24;97359.00;;;15.10
19666;BMP180;9980;51.020;7.772;2023-08-08T04:48:51;97356.00;;;15.20
19666;BMP180;9980;51.020;7.772;2023-08-08T04:51:18;97352.00;;;15.20
19666;BMP180;9980;51.020;7.772;2023-08-08T04:53:45;97358.00;;;15.20
19666;BMP180;9980;51.020;7.772;2023-08-08T04:56:12;97361.00;;;15.20
19666;BMP180;9980;51.020;7.772;2023-08-08T04:58:39;97349.00;;;15.30
19666;BMP180;9980;51.020;7.772;2023-08-08T05:01:06;97351.00;;;15.30
19666;BMP180;9980;51.020;7.772;2023-08-08T05:03:35;97337.00;;;15.40
19666;BMP180;9980;51.020;7.772;2023-08-08T05:06:03;97341.00;;;15.40
19666;BMP180;9980;51.020;7.772;2023-08-08T05:08:30;97340.00;;;15.40
19666;BMP180;9980;51.020;7.772;2023-08-08T05:10:57;97345.00;;;15.50
19666;BMP180;9980;51.020;7.772;2023-08-08T05:13:24;97344.00;;;15.50
19666;BMP180;9980;51.020;7.772;2023-08-08T05:15:51;97345.00;;;15.50
19666;BMP180;9980;51.020;7.772;2023-08-08T05:18:17;97352.00;;;15.60
19666;BMP180;9980;51.020;7.772;2023-08-08T05:20:44;97334.00;;;15.60
19666;BMP180;9980;51.020;7.772;2023-08-08T05:23:11;97333.00;;;15.60
19666;BMP180;9980;51.020;7.772;2023-08-08T05:25:38;97339.00;;;15.70
19666;BMP180;9980;51.020;7.772;2023-08-08T05:28:05;97340.00;;;15.70
19666;BMP180;9980;51.020;7.772;2023-08-08T05:30:32;97336.00;;;15.80
19666;BMP180;9980;51.020;7.772;2023-08-08T05:33:00;97344.00;;;15.80
19666;BMP180;9980;51.020;7.772;2023-08-08T05:35:27;97331.00;;;15.80
19666;BMP180;9980;51.020;7.772;2023-08-08T05:37:54;97336.00;;;15.90
19666;BMP180;9980;51.020;7.772;2023-08-08T05:40:21;97337.00;;;15.90
19666;BMP180;9980;51.020;7.772;2023-08-08T05:42:48;97337.00;;;15.90
19666;BMP180;9980;51.020;7.772;2023-08-08T05:45:15;97338.00;;;16.00
19666;BMP180;9980;51.020;7.772;2023-08-08T05:47:42;97346.00;;;16.00
19666;BMP180;9980;51.020;7.772;2023-08-08T05:50:09;97339.00;;;16.00
19666;BMP180;9980;51.020;7.772;2023-08-08T05:52:36;97336.00;;;16.10
19666;BMP180;9980;51.020;7.772;2023-08-08T05:55:04;97350.00;;;16.10
19666;BMP180;9980;51.020;7.772;2023-08-08T05:57:31;97356.00;;;16.20
19666;BMP180;9980;51.020;7.772;2023-08-08T05:59:57;97361.00;;;16.20
19666;BMP180;9980;51.020;7.772;2023-08-08T06:02:27;97357.00;;;16.20
19666;BMP180;9980;51.020;7.772;2023-08-08T06:04:54;97359.00;;;16.30
19666;BMP180;9980;51.020;7.772;2023-08-08T06:07:20;97349.00;;;16.30
19666;BMP180;9980;51.020;7.772;2023-08-08T06:09:47;97345.00;;;16.30
19666;BMP180;9980;51.020;7.772;2023-08-08T06:12:14;97345.00;;;16.30
19666;BMP180;9980;51.020;7.772;2023-08-08T06:14:41;97354.00;;;16.40
19666;BMP180;9980;51.020;7.772;2023-08-08T06:17:09;97352.00;;;16.40
19666;BMP180;9980;51.020;7.772;2023-08-08T06:19:36;97333.00;;;16.40
19666;BMP180;9980;51.020;7.772;2023-08-08T06:22:03;97354.00;;;16.40
19666;BMP180;9980;51.020;7.772;2023-08-08T06:24:30;97349.00;;;16.50
19666;BMP180;9980;51.020;7.772;2023-08-08T06:26:58;97349.00;;;16.50
19666;BMP180;9980;51.020;7.772;2023-08-08T06:29:25;97344.00;;;16.50
19666;BMP180;9980;51.020;7.772;2023-08-08T06:31:53;97347.00;;;16.60
19666;BMP180;9980;51.020;7.772;2023-08-08T06:34:20;97360.00;;;16.60
19666;BMP180;9980;51.020;7.772;2023-08-08T06:36:47;97345.00;;;16.60
19666;BMP180;9980;51.020;7.772;2023-08-08T06:39:15;97363.00;;;16.60
19666;BMP180;9980;51.020;7.772;2023-08-08T06:41:42;97346.00;;;16.70
19666;BMP180;9980;51.020;7.772;2023-08-08T06:44:09;97366.00;;;16.70
19666;BMP180;9980;51.020;7.772;2023-08-08T06:46:37;97356.00;;;16.70
19666;BMP180;9980;51.020;7.772;2023-08-08T06:49:04;97359.00;;;16.70
19666;BMP180;9980;51.020;7.772;2023-08-08T06:51:31;97363.00;;;16.70
19666;BMP180;9980;51.020;7.772;2023-08-08T06:53:58;97361.00;;;16.80
19666;BMP180;9980;51.020;7.772;2023-08-08T06:56:25;97346.00;;;16.80
19666;BMP180;9980;51.020;7.772;2023-08-08T06:58:53;97364.00;;;16.80
19666;BMP180;9980;51.020;7.772;2023-08-08T07:01:20;97363.00;;;16.90
19666;BMP180;9980;51.020;7.772;2023-08-08T07:03:47;97359.00;;;16.90
19666;BMP180;9980;51.020;7.772;2023-08-08T07:06:18;97346.00;;;16.90
19666;BMP180;9980;51.020;7.772;2023-08-08T07:08:45;97358.00;;;17.00
19666;BMP180;9980;51.020;7.772;2023-08-08T07:11:12;97347.00;;;17.00
19666;BMP180;9980;51.020;7.772;2023-08-08T07:13:39;97364.00;;;17.00
19666;BMP180;9980;51.020;7.772;2023-08-08T07:16:06;97345.00;;;17.00
19666;BMP180;9980;51.020;7.772;2023-08-08T07:18:34;97359.00;;;17.00
19666;BMP180;9980;51.020;7.772;2023-08-08T07:21:01;97357.00;;;17.00
19666;BMP180;9980;51.020;7.772;2023-08-08T07:23:28;97345.00;;;17.00
19666;BMP180;9980;51.020;7.772;2023-08-08T07:25:55;97355.00;;;17.10
19666;BMP180;9980;51.020;7.772;2023-08-08T07:28:22;97358.00;;;17.10
19666;BMP180;9980;51.020;7.772;2023-08-08T07:30:49;97352.00;;;17.10
19666;BMP180;9980;51.020;7.772;2023-08-08T07:33:22;97326.00;;;17.10
19666;BMP180;9980;51.020;7.772;2023-08-08T07:35:49;97325.00;;;17.10
19666;BMP180;9980;51.020;7.772;2023-08-08T07:38:16;97328.00;;;17.20
19666;BMP180;9980;51.020;7.772;2023-08-08T07:40:43;97331.00;;;17.20
19666;BMP180;9980;51.020;7.772;2023-08-08T07:43:12;97337.00;;;17.20
19666;BMP180;9980;51.020;7.772;2023-08-08T07:45:39;97344.00;;;17.20
19666;BMP180;9980;51.020;7.772;2023-08-08T07:48:06;97343.00;;;17.30
19666;BMP180;9980;51.020;7.772;2023-08-08T07:50:33;97351.00;;;17.30
19666;BMP180;9980;51.020;7.772;2023-08-08T07:53:00;97352.00;;;17.30
19666;BMP180;9980;51.020;7.772;2023-08-08T07:55:27;97346.00;;;17.30
19666;BMP180;9980;51.020;7.772;2023-08-08T07:57:54;97332.00;;;17.40
19666;BMP180;9980;51.020;7.772;2023-08-08T08:00:21;97344.00;;;17.40
19666;BMP180;9980;51.020;7.772;2023-08-08T08:02:51;97329.00;;;17.50
19666;BMP180;9980;51.020;7.772;2023-08-08T08:05:19;97349.00;;;17.50
19666;BMP180;9980;51.020;7.772;2023-08-08T08:07:46;97339.00;;;17.50
19666;BMP180;9980;51.020;7.772;2023-08-08T08:10:13;97345.00;;;17.50
19666;BMP180;9980;51.020;7.772;2023-08-08T08:12:41;97347.00;;;17.60
19666;BMP180;9980;51.020;7.772;2023-08-08T08:15:09;97343.00;;;17.60
19666;BMP180;9980;51.020;7.772;2023-08-08T08:17:37;97340.00;;;17.70
19666;BMP180;9980;51.020;7.772;2023-08-08T08:20:05;97354.00;;;17.80
19666;BMP180;9980;51.020;7.772;2023-08-08T08:22:37;97350.00;;;17.90
19666;BMP180;9980;51.020;7.772;2023-08-08T08:25:07;97345.00;;;18.00
19666;BMP180;9980;51.020;7.772;2023-08-08T08:27:37;97335.00;;;18.00
19666;BMP180;9980;51.020;7.772;2023-08-08T08:30:06;97354.00;;;18.10
19666;BMP180;9980;51.020;7.772;2023-08-08T08:32:34;97331.00;;;18.10
19666;BMP180;9980;51.020;7.772;2023-08-08T08:35:03;97335.00;;;18.20
19666;BMP180;9980;51.020;7.772;2023-08-08T08:37:34;97334.00;;;18.30
19666;BMP180;9980;51.020;7.772;2023-08-08T08:40:03;97329.00;;;18.40
19666;BMP180;9980;51.020;7.772;2023-08-08T08:42:32;97328.00;;;18.50
19666;BMP180;9980;51.020;7.772;2023-08-08T08:45:03;97332.00;;;18.70
19666;BMP180;9980;51.020;7.772;2023-08-08T08:47:32;97333.00;;;18.80
19666;BMP180;9980;51.020;7.772;2023-08-08T08:50:01;97322.00;;;19.00
19666;BMP180;9980;51.020;7.772;2023-08-08T08:52:30;97326.00;;;19.10
19666;BMP180;9980;51.020;7.772;2023-08-08T08:54:57;97328.00;;;19.20
19666;BMP180;9980;51.020;7.772;2023-08-08T08:57:25;97325.00;;;19.30
19666;BMP180;9980;51.020;7.772;2023-08-08T08:59:52;97316.00;;;19.40
19666;BMP180;9980;51.020;7.772;2023-08-08T09:02:19;97319.00;;;19.50
19666;BMP180;9980;51.020;7.772;2023-08-08T09:04:47;97318.00;;;19.60
19666;BMP180;9980;51.020;7.772;2023-08-08T09:07:19;97325.00;;;19.70
19666;BMP180;9980;51.020;7.772;2023-08-08T09:09:47;97317.00;;;19.80
19666;BMP180;9980;51.020;7.772;2023-08-08T09:12:16;97317.00;;;19.80
19666;BMP180;9980;51.020;7.772;2023-08-08T09:14:43;97315.00;;;19.90
19666;BMP180;9980;51.020;7.772;2023-08-08T09:17:13;97321.00;;;20.00
19666;BMP180;9980;51.020;7.772;2023-08-08T09:19:45;97315.00;;;20.00
19666;BMP180;9980;51.020;7.772;2023-08-08T09:22:14;97324.00;;;20.10
19666;BMP180;9980;51.020;7.772;2023-08-08T09:24:42;97315.00;;;20.20
19666;BMP180;9980;51.020;7.772;2023-08-08T09:27:10;97301.00;;;20.30
19666;BMP180;9980;51.020;7.772;2023-08-08T09:29:39;97297.00;;;20.40
19666;BMP180;9980;51.020;7.772;2023-08-08T09:32:07;97298.00;;;20.50
19666;BMP180;9980;51.020;7.772;2023-08-08T09:34:35;97287.00;;;20.60
19666;BMP180;9980;51.020;7.772;2023-08-08T09:37:02;97292.00;;;20.60
19666;BMP180;9980;51.020;7.772;2023-08-08T09:39:32;97291.00;;;20.70
19666;BMP180;9980;51.020;7.772;2023-08-08T09:42:01;97310.00;;;20.70
19666;BMP180;9980;51.020;7.772;2023-08-08T09:44:32;97304.00;;;20.70
19666;BMP180;9980;51.020;7.772;2023-08-08T09:47:01;97326.00;;;20.70
19666;BMP180;9980;51.020;7.772;2023-08-08T09:49:29;97324.00;;;20.60
19666;BMP180;9980;51.020;7.772;2023-08-08T09:51:59;97329.00;;;20.60
19666;BMP180;9980;51.020;7.772;2023-08-08T09:54:26;97320.00;;;20.50
19666;BMP180;9980;51.020;7.772;2023-08-08T09:56:55;97314.00;;;20.50
19666;BMP180;9980;51.020;7.772;2023-08-08T09:59:23;97306.00;;;20.40
19666;BMP180;9980;51.020;7.772;2023-08-08T10:06:08;97309.00;;;20.20
19666;BMP180;9980;51.020;7.772;2023-08-08T10:08:41;97335.00;;;20.20
19666;BMP180;9980;51.020;7.772;2023-08-08T10:11:10;97329.00;;;20.10
19666;BMP180;9980;51.020;7.772;2023-08-08T10:13:47;97336.00;;;20.00
19666;BMP180;9980;51.020;7.772;2023-08-08T10:16:17;97340.00;;;19.90
19666;BMP180;9980;51.020;7.772;2023-08-08T10:19:00;97320.00;;;19.80
19666;BMP180;9980;51.020;7.772;2023-08-08T10:21:27;97341.00;;;19.80
19666;BMP180;9980;51.020;7.772;2023-08-08T10:24:09;97339.00;;;19.70
19666;BMP180;9980;51.020;7.772;2023-08-08T10:26:59;97348.00;;;19.70
19666;BMP180;9980;51.020;7.772;2023-08-08T10:29:31;97344.00;;;19.70
19666;BMP180;9980;51.020;7.772;2023-08-08T10:32:03;97347.00;;;19.60
19666;BMP180;9980;51.020;7.772;2023-08-08T10:34:43;97356.00;;;19.60
19666;BMP180;9980;51.020;7.772;2023-08-08T10:37:12;97360.00;;;19.60
19666;BMP180;9980;51.020;7.772;2023-08-08T10:39:58;97345.00;;;19.50
19666;BMP180;9980;51.020;7.772;2023-08-08T10:42:28;97372.00;;;19.50
19666;BMP180;9980;51.020;7.772;2023-08-08T10:44:58;97356.00;;;19.50
19666;BMP180;9980;51.020;7.772;2023-08-08T10:47:35;97360.00;;;19.40
19666;BMP180;9980;51.020;7.772;2023-08-08T10:50:11;97362.00;;;19.40
19666;BMP180;9980;51.020;7.772;2023-08-08T10:52:58;97353.00;;;19.30
19666;BMP180;9980;51.020;7.772;2023-08-08T10:55:31;97354.00;;;19.30
19666;BMP180;9980;51.020;7.772;2023-08-08T10:58:08;97358.00;;;19.20
19666;BMP180;9980;51.020;7.772;2023-08-08T11:00:39;97345.00;;;19.20
19666;BMP180;9980;51.020;7.772;2023-08-08T11:03:08;97355.00;;;19.20
19666;BMP180;9980;51.020;7.772;2023-08-08T11:05:37;97358.00;;;19.20
19666;BMP180;9980;51.020;7.772;2023-08-08T11:08:06;97360.00;;;19.10
19666;BMP180;9980;51.020;7.772;2023-08-08T11:10:39;97351.00;;;19.10
19666;BMP180;9980;51.020;7.772;2023-08-08T11:13:07;97353.00;;;19.10
19666;BMP180;9980;51.020;7.772;2023-08-08T11:15:36;97359.00;;;19.10
19666;BMP180;9980;51.020;7.772;2023-08-08T11:18:03;97351.00;;;19.10
19666;BMP180;9980;51.020;7.772;2023-08-08T11:20:33;97360.00;;;19.10
19666;BMP180;9980;51.020;7.772;2023-08-08T11:23:00;97347.00;;;19.10
19666;BMP180;9980;51.020;7.772;2023-08-08T11:25:30;97348.00;;;19.20
19666;BMP180;9980;51.020;7.772;2023-08-08T11:27:58;97348.00;;;19.20
19666;BMP180;9980;51.020;7.772;2023-08-08T11:30:31;97354.00;;;19.20
19666;BMP180;9980;51.020;7.772;2023-08-08T11:33:00;97360.00;;;19.30
19666;BMP180;9980;51.020;7.772;2023-08-08T11:35:30;97344.00;;;19.40
19666;BMP180;9980;51.020;7.772;2023-08-08T11:37:58;97354.00;;;19.50
19666;BMP180;9980;51.020;7.772;2023-08-08T11:40:28;97354.00;;;19.50
19666;BMP180;9980;51.020;7.772;2023-08-08T11:42:57;97347.00;;;19.60
19666;BMP180;9980;51.020;7.772;2023-08-08T11:45:24;97340.00;;;19.60
19666;BMP180;9980;51.020;7.772;2023-08-08T11:47:53;97357.00;;;19.70
19666;BMP180;9980;51.020;7.772;2023-08-08T11:50:23;97344.00;;;19.70
19666;BMP180;9980;51.020;7.772;2023-08-08T11:52:53;97349.00;;;19.70
19666;BMP180;9980;51.020;7.772;2023-08-08T11:55:21;97353.00;;;19.80
19666;BMP180;9980;51.020;7.772;2023-08-08T11:57:55;97344.00;;;19.80
19666;BMP180;9980;51.020;7.772;2023-08-08T12:00:30;97360.00;;;19.70
19666;BMP180;9980;51.020;7.772;2023-08-08T12:03:00;97342.00;;;19.70
19666;BMP180;9980;51.020;7.772;2023-08-08T12:05:28;97328.00;;;19.80
19666;BMP180;9980;51.020;7.772;2023-08-08T12:07:55;97334.00;;;19.80
19666;BMP180;9980;51.020;7.772;2023-08-08T12:10:23;97341.00;;;19.80
19666;BMP180;9980;51.020;7.772;2023-08-08T12:12:57;97336.00;;;19.90
19666;BMP180;9980;51.020;7.772;2023-08-08T12:15:34;97320.00;;;19.90
19666;BMP180;9980;51.020;7.772;2023-08-08T12:18:05;97325.00;;;19.90
19666;BMP180;9980;51.020;7.772;2023-08-08T12:20:32;97334.00;;;20.00
19666;BMP180;9980;51.020;7.772;2023-08-08T12:23:00;97329.00;;;20.00
19666;BMP180;9980;51.020;7.772;2023-08-08T12:25:27;97337.00;;;20.00
19666;BMP180;9980;51.020;7.772;2023-08-08T12:27:54;97341.00;;;20.10
19666;BMP180;9980;51.020;7.772;2023-08-08T12:30:22;97322.00;;;20.10
19666;BMP180;9980;51.020;7.772;2023-08-08T12:32:49;97327.00;;;20.10
19666;BMP180;9980;51.020;7.772;2023-08-08T12:35:17;97323.00;;;20.20
19666;BMP180;9980;51.020;7.772;2023-08-08T12:37:44;97321.00;;;20.20
19666;BMP180;9980;51.020;7.772;2023-08-08T12:40:11;97332.00;;;20.20
19666;BMP180;9980;51.020;7.772;2023-08-08T12:42:39;97332.00;;;20.30
19666;BMP180;9980;51.020;7.772;2023-08-08T12:45:07;97305.00;;;20.30
19666;BMP180;9980;51.020;7.772;2023-08-08T12:47:36;97317.00;;;20.40
19666;BMP180;9980;51.020;7.772;2023-08-08T12:50:05;97319.00;;;20.40
19666;BMP180;9980;51.020;7.772;2023-08-08T12:52:33;97314.00;;;20.40
19666;BMP180;9980;51.020;7.772;2023-08-08T12:55:00;97317.00;;;20.50
19666;BMP180;9980;51.020;7.772;2023-08-08T12:57:27;97331.00;;;20.50
19666;BMP180;9980;51.020;7.772;2023-08-08T12:59:54;97321.00;;;20.50
19666;BMP180;9980;51.020;7.772;2023-08-08T13:02:21;97310.00;;;20.50
19666;BMP180;9980;51.020;7.772;2023-08-08T13:04:48;97325.00;;;20.50
19666;BMP180;9980;51.020;7.772;2023-08-08T13:07:16;97327.00;;;20.50
19666;BMP180;9980;51.020;7.772;2023-08-08T13:09:43;97321.00;;;20.50
19666;BMP180;9980;51.020;7.772;2023-08-08T13:12:10;97316.00;;;20.50
19666;BMP180;9980;51.020;7.772;2023-08-08T13:14:37;97325.00;;;20.50
19666;BMP180;9980;51.020;7.772;2023-08-08T13:17:04;97318.00;;;20.50
19666;BMP180;9980;51.020;7.772;2023-08-08T13:19:31;97317.00;;;20.50
19666;BMP180;9980;51.020;7.772;2023-08-08T13:21:58;97316.00;;;20.50
19666;BMP180;9980;51.020;7.772;2023-08-08T13:24:28;97322.00;;;20.50
19666;BMP180;9980;51.020;7.772;2023-08-08T13:26:55;97303.00;;;20.50
19666;BMP180;9980;51.020;7.772;2023-08-08T13:29:23;97315.00;;;20.50
19666;BMP180;9980;51.020;7.772;2023-08-08T13:31:50;97311.00;;;20.50
19666;BMP180;9980;51.020;7.772;2023-08-08T13:34:17;97322.00;;;20.50
19666;BMP180;9980;51.020;7.772;2023-08-08T13:36:45;97318.00;;;20.50
19666;BMP180;9980;51.020;7.772;2023-08-08T13:39:12;97326.00;;;20.50
19666;BMP180;9980;51.020;7.772;2023-08-08T13:41:40;97337.00;;;20.50
19666;BMP180;9980;51.020;7.772;2023-08-08T13:44:07;97323.00;;;20.50
19666;BMP180;9980;51.020;7.772;2023-08-08T13:46:35;97350.00;;;20.40
19666;BMP180;9980;51.020;7.772;2023-08-08T13:49:02;97344.00;;;20.40
19666;BMP180;9980;51.020;7.772;2023-08-08T13:51:29;97345.00;;;20.30
19666;BMP180;9980;51.020;7.772;2023-08-08T13:53:56;97358.00;;;20.20
19666;BMP180;9980;51.020;7.772;2023-08-08T13:56:23;97349.00;;;20.20
19666;BMP180;9980;51.020;7.772;2023-08-08T13:58:50;97344.00;;;20.10
19666;BMP180;9980;51.020;7.772;2023-08-08T14:01:17;97351.00;;;20.00
19666;BMP180;9980;51.020;7.772;2023-08-08T14:03:44;97335.00;;;20.00
19666;BMP180;9980;51.020;7.772;2023-08-08T14:06:12;97344.00;;;20.00
19666;BMP180;9980;51.020;7.772;2023-08-08T14:08:39;97354.00;;;19.90
19666;BMP180;9980;51.020;7.772;2023-08-08T14:11:06;97337.00;;;19.90
19666;BMP180;9980;51.020;7.772;2023-08-08T14:13:33;97343.00;;;19.80
19666;BMP180;9980;51.020;7.772;2023-08-08T14:16:02;97354.00;;;19.80
19666;BMP180;9980;51.020;7.772;2023-08-08T14:18:29;97344.00;;;19.80
19666;BMP180;9980;51.020;7.772;2023-08-08T14:20:55;97339.00;;;19.80
19666;BMP180;9980;51.020;7.772;2023-08-08T14:23:22;97341.00;;;19.80
19666;BMP180;9980;51.020;7.772;2023-08-08T14:25:49;97339.00;;;19.80
19666;BMP180;9980;51.020;7.772;2023-08-08T14:28:16;97344.00;;;19.90
19666;BMP180;9980;51.020;7.772;2023-08-08T14:30:43;97347.00;;;19.90
19666;BMP180;9980;51.020;7.772;2023-08-08T14:33:15;97354.00;;;20.00
19666;BMP180;9980;51.020;7.772;2023-08-08T14:35:43;97346.00;;;20.10